Time;durP1;ratioP1;P1;durP2;ratioP2;P2;SDS_P1;SDS_P2;PMS_P1;PMS_P2;Temp;Humidity;BMP_temperature;BMP_pressure;BME280_temperature;BME280_humidity;BME280_pressure;Samples;Min_cycle;Max_cycle;Signal;HPM_P1;HPM_P2
2022/09/17 00:01:52;;;;;;;;;;;;;;;8.29;97.01;97015.22;5011878;28;19920;-65
2022/09/17 00:04:19;;;;;;;;;;;;;;;8.40;96.79;97010.78;5029701;28;20384;-64
2022/09/17 00:06:45;;;;;;;;;;;;;;;8.42;96.35;97005.97;5029167;28;20416;-65
2022/09/17 00:09:12;;;;;;;;;;;;;;;8.44;96.57;97009.25;5019413;28;20388;-67
2022/09/17 00:11:40;;;;;;;;;;;;;;;8.53;95.96;97012.34;5013792;28;19920;-64
2022/09/17 00:14:08;;;;;;;;;;;;;;;8.48;96.21;97012.25;5008817;28;20435;-63
2022/09/17 00:16:34;;;;;;;;;;;;;;;8.52;96.21;97010.69;5008686;28;19963;-64
2022/09/17 00:19:01;;;;;;;;;;;;;;;8.53;96.38;97015.88;5019775;28;19921;-64
2022/09/17 00:21:28;;;;;;;;;;;;;;;8.56;96.42;97011.88;5008940;28;20353;-64
2022/09/17 00:23:55;;;;;;;;;;;;;;;8.54;96.12;97011.28;5026113;28;19931;-64
2022/09/17 00:26:21;;;;;;;;;;;;;;;8.58;96.26;97012.41;5028789;28;20384;-64
2022/09/17 00:28:49;;;;;;;;;;;;;;;8.62;96.21;97018.16;5022692;28;19922;-65
2022/09/17 00:31:15;;;;;;;;;;;;;;;8.61;96.15;97016.50;5024248;28;20021;-65
2022/09/17 00:33:42;;;;;;;;;;;;;;;8.58;96.47;97013.25;5025814;28;20390;-64
2022/09/17 00:36:08;;;;;;;;;;;;;;;8.61;96.69;97011.09;5028652;28;19921;-64
2022/09/17 00:38:34;;;;;;;;;;;;;;;8.63;96.39;97007.13;5023871;28;20008;-64
2022/09/17 00:41:01;;;;;;;;;;;;;;;8.64;96.44;97006.03;5008881;28;19921;-65
2022/09/17 00:43:54;;;;;;;;;;;;;;;8.70;95.95;97004.25;5029659;28;20430;-65
2022/09/17 00:46:20;;;;;;;;;;;;;;;8.60;96.74;97004.91;5023091;28;19921;-63
2022/09/17 00:48:47;;;;;;;;;;;;;;;8.66;97.20;97006.59;5024310;28;19952;-63
2022/09/17 00:51:16;;;;;;;;;;;;;;;8.60;96.78;97010.31;5027863;28;19921;-64
2022/09/17 00:53:43;;;;;;;;;;;;;;;8.53;97.13;97012.34;5025129;28;20408;-63
2022/09/17 00:56:13;;;;;;;;;;;;;;;8.57;96.84;97013.50;5027202;28;20008;-65
2022/09/17 00:58:40;;;;;;;;;;;;;;;8.58;96.37;97007.84;5021428;28;20408;-64
2022/09/17 01:01:06;;;;;;;;;;;;;;;8.55;96.57;97008.34;5007835;28;20411;-63
2022/09/17 01:03:33;;;;;;;;;;;;;;;8.49;96.70;97008.47;5021266;28;19921;-65
2022/09/17 01:05:59;;;;;;;;;;;;;;;8.40;96.93;97008.91;5025445;28;19982;-65
2022/09/17 01:08:50;;;;;;;;;;;;;;;8.43;96.96;97015.69;5027645;28;19921;-65
2022/09/17 01:11:29;;;;;;;;;;;;;;;8.43;96.22;97004.88;5016901;28;19968;-64
2022/09/17 01:14:03;;;;;;;;;;;;;;;8.35;96.84;97021.50;5007484;28;19925;-64
2022/09/17 01:16:47;;;;;;;;;;;;;;;8.38;97.37;97021.00;5022290;28;20020;-64
2022/09/17 01:19:31;;;;;;;;;;;;;;;8.44;96.46;97020.03;5020646;28;20008;-65
2022/09/17 01:22:21;;;;;;;;;;;;;;;8.31;96.73;97023.88;5028487;28;20015;-64
2022/09/17 01:25:02;;;;;;;4.82;1.15;;;;;;;8.33;96.34;97027.13;5016570;28;19921;-64
2022/09/17 01:27:40;;;;;;;4.72;1.63;;;;;;;8.38;96.80;97034.50;5008239;28;20125;-66
2022/09/17 01:30:22;;;;;;;2.95;1.10;;;;;;;8.38;96.58;97032.63;5020907;28;20406;-64
2022/09/17 01:32:59;;;;;;;3.10;1.35;;;;;;;8.42;96.30;97033.75;5020969;28;20124;-65
2022/09/17 01:35:36;;;;;;;2.72;1.38;;;;;;;8.46;95.63;97037.59;5038134;28;20507;-64
2022/09/17 01:38:30;;;;;;;6.22;1.30;;;;;;;8.52;95.33;97038.47;5008643;28;20182;-64
2022/09/17 01:41:15;;;;;;;3.45;1.30;;;;;;;8.49;95.57;97039.00;5011685;28;20124;-65
2022/09/17 01:43:51;;;;;;;2.17;1.10;;;;;;;8.53;95.39;97033.94;5024966;28;20048;-64
2022/09/17 01:46:31;;;;;;;5.32;1.60;;;;;;;8.54;94.93;97038.25;5018809;28;20452;-64
2022/09/17 01:49:01;;;;;;;2.97;1.13;;;;;;;8.53;94.88;97042.88;5024514;28;20050;-64
2022/09/17 01:51:35;;;;;;;2.17;0.90;;;;;;;8.54;95.02;97039.09;5035489;28;20087;-65
2022/09/17 01:54:20;;;;;;;6.13;1.27;;;;;;;8.55;95.24;97034.53;5032666;28;20046;-64
2022/09/17 01:56:50;;;;;;;4.68;1.42;;;;;;;8.52;95.21;97035.78;5008886;28;20057;-63
2022/09/17 01:59:26;;;;;;;3.35;1.20;;;;;;;8.52;95.25;97032.28;5019231;28;20238;-64
2022/09/17 02:01:59;;;;;;;2.45;1.13;;;;;;;8.58;95.14;97039.41;5009184;28;20164;-64
2022/09/17 02:04:31;;;;;;;4.45;1.65;;;;;;;8.46;95.30;97042.19;5026305;28;20095;-64
2022/09/17 02:07:04;;;;;;;1.60;0.90;;;;;;;8.41;95.83;97042.91;5007017;28;20418;-65
2022/09/17 02:09:37;;;;;;;2.13;1.10;;;;;;;8.40;95.76;97038.56;5005396;28;20519;-64
2022/09/17 02:12:09;;;;;;;4.25;1.42;;;;;;;8.34;95.86;97042.28;5025136;28;20469;-65
2022/09/17 02:14:41;;;;;;;3.75;1.50;;;;;;;8.39;95.71;97026.16;5014503;28;20065;-65
2022/09/17 02:17:36;;;;;;;;;;;;;;;8.38;95.25;97032.63;5029240;28;20510;-64
2022/09/17 02:20:05;;;;;;;4.15;1.10;;;;;;;8.44;95.28;97034.31;5020247;28;20012;-64
2022/09/17 02:22:41;;;;;;;3.22;1.50;;;;;;;8.33;95.63;97033.34;5017841;28;20072;-64
2022/09/17 02:25:24;;;;;;;3.40;1.00;;;;;;;8.28;95.97;97035.13;5027103;28;20456;-64
2022/09/17 02:28:18;;;;;;;5.18;1.63;;;;;;;8.23;96.33;97038.59;5024185;28;20047;-65
2022/09/17 02:30:45;;;;;;;3.10;1.50;;;;;;;8.12;96.71;97039.47;5017403;28;20568;-63
2022/09/17 02:33:14;;;;;;;5.43;1.75;;;;;;;8.14;96.41;97037.38;5018882;28;20124;-64
2022/09/17 02:35:43;;;;;;;3.08;1.70;;;;;;;8.02;96.56;97040.13;5017926;28;20494;-66
2022/09/17 02:38:09;;;;;;;2.05;1.20;;;;;;;7.98;97.15;97039.78;5023769;28;20124;-64
2022/09/17 02:40:46;;;;;;;2.83;1.95;;;;;;;7.95;97.74;97040.28;5018548;28;20195;-64
2022/09/17 02:43:48;;;;;;;3.55;1.40;;;;;;;7.81;98.29;97034.38;5024825;28;20120;-66
2022/09/17 02:46:24;;;;;;;3.38;1.25;;;;;;;7.86;98.07;97037.16;5013899;28;20276;-65
2022/09/17 02:49:18;;;;;;;6.07;1.80;;;;;;;7.83;98.25;97037.66;5006459;28;20060;-66
2022/09/17 02:52:04;;;;;;;2.80;1.50;;;;;;;7.76;98.41;97032.41;5019846;28;20598;-64
2022/09/17 02:54:51;;;;;;;2.47;1.60;;;;;;;7.77;98.21;97033.22;5006187;28;20480;-63
2022/09/17 02:57:29;;;;;;;2.13;1.17;;;;;;;7.78;98.72;97034.88;5006221;28;20290;-65
2022/09/17 03:00:04;;;;;;;4.78;1.60;;;;;;;7.73;98.90;97034.75;5005823;28;20129;-64
2022/09/17 03:02:56;;;;;;;3.55;1.50;;;;;;;7.70;98.67;97027.19;5018811;28;20037;-63
2022/09/17 03:05:24;;;;;;;3.00;1.20;;;;;;;7.73;98.73;97035.59;5010193;28;20613;-64
2022/09/17 03:07:53;;;;;;;2.17;1.20;;;;;;;7.67;98.78;97031.16;5025898;28;20077;-64
2022/09/17 03:10:19;;;;;;;7.28;1.50;;;;;;;7.57;98.85;97026.41;5021579;28;20092;-65
2022/09/17 03:12:46;;;;;;;5.10;1.25;;;;;;;7.53;99.41;97033.34;5021105;28;20127;-63
2022/09/17 03:15:13;;;;;;;4.13;1.38;;;;;;;7.54;99.41;97030.41;5023282;28;20050;-63
2022/09/17 03:17:39;;;;;;;4.88;1.50;;;;;;;7.54;99.35;97034.97;5005296;28;20050;-63
2022/09/17 03:20:06;;;;;;;8.13;1.60;;;;;;;7.48;99.18;97035.94;5007248;28;20037;-66
2022/09/17 03:22:32;;;;;;;7.38;1.77;;;;;;;7.50;99.13;97033.81;5018634;28;20490;-64
2022/09/17 03:24:59;;;;;;;2.17;1.13;;;;;;;7.40;99.38;97026.34;5006740;28;20042;-64
2022/09/17 03:27:25;;;;;;;7.68;1.48;;;;;;;7.41;99.02;97034.19;5026053;28;20129;-65
2022/09/17 03:29:52;;;;;;;2.63;1.20;;;;;;;7.40;99.23;97027.16;5025603;28;20045;-65
2022/09/17 03:32:18;;;;;;;4.13;1.10;;;;;;;7.36;99.23;97030.56;5008964;28;20499;-65
2022/09/17 03:34:45;;;;;;;4.38;1.17;;;;;;;7.37;99.37;97035.72;5025289;28;20041;-64
2022/09/17 03:37:12;;;;;;;4.47;1.25;;;;;;;7.35;99.00;97037.84;5006771;28;20042;-63
2022/09/17 03:39:38;;;;;;;4.72;1.20;;;;;;;7.42;99.03;97033.13;5006115;28;20124;-65
2022/09/17 03:42:05;;;;;;;8.15;2.25;;;;;;;7.36;98.94;97038.66;5025878;28;20154;-63
2022/09/17 03:44:31;;;;;;;4.50;1.38;;;;;;;7.24;99.70;97042.22;5021926;28;20306;-64
2022/09/17 03:46:58;;;;;;;3.13;1.27;;;;;;;7.27;99.28;97043.63;5010429;28;20429;-64
2022/09/17 03:49:24;;;;;;;5.97;1.10;;;;;;;7.36;99.27;97050.25;5027030;28;20052;-63
2022/09/17 03:51:51;;;;;;;5.30;1.25;;;;;;;7.32;98.95;97045.56;5013033;28;20123;-65
2022/09/17 03:54:17;;;;;;;7.10;1.35;;;;;;;7.31;98.76;97050.16;5028554;28;20076;-63
2022/09/17 03:56:44;;;;;;;5.28;1.50;;;;;;;7.39;98.53;97048.97;5025678;28;20125;-63
2022/09/17 03:59:10;;;;;;;4.38;1.25;;;;;;;7.34;98.10;97049.66;5028303;28;20501;-62
2022/09/17 04:01:37;;;;;;;4.28;1.88;;;;;;;7.29;98.09;97055.78;5016596;28;20076;-63
2022/09/17 04:04:03;;;;;;;4.25;1.25;;;;;;;7.24;98.62;97061.06;5028399;28;20065;-65
2022/09/17 04:06:30;;;;;;;5.47;1.70;;;;;;;7.27;98.21;97055.19;5016642;28;20128;-63
2022/09/17 04:08:56;;;;;;;4.72;1.80;;;;;;;7.28;97.93;97066.78;5029069;28;20120;-62
2022/09/17 04:11:23;;;;;;;3.85;1.50;;;;;;;7.27;97.96;97067.84;5011036;28;20076;-64
2022/09/17 04:13:49;;;;;;;6.53;1.50;;;;;;;7.38;97.32;97069.69;5048268;28;20047;-65
2022/09/17 04:16:16;;;;;;;8.18;1.63;;;;;;;7.39;96.99;97070.50;5018698;28;20132;-64
2022/09/17 04:18:42;;;;;;;2.33;1.17;;;;;;;7.46;96.50;97059.59;5020552;28;20569;-64
2022/09/17 04:21:09;;;;;;;6.20;1.33;;;;;;;7.47;96.39;97062.03;5008160;28;20335;-64
2022/09/17 04:23:35;;;;;;;3.85;1.15;;;;;;;7.51;96.58;97060.50;5014566;28;20309;-63
2022/09/17 04:26:02;;;;;;;7.03;1.67;;;;;;;7.45;96.57;97058.78;5016647;28;20057;-66
2022/09/17 04:28:28;;;;;;;5.93;1.98;;;;;;;7.49;96.25;97062.63;5026237;28;20432;-63
2022/09/17 04:30:55;;;;;;;7.15;2.25;;;;;;;7.49;96.19;97064.50;5025885;28;20050;-64
2022/09/17 04:33:21;;;;;;;7.68;1.60;;;;;;;7.53;95.54;97063.78;5008222;28;20042;-64
2022/09/17 04:35:48;;;;;;;5.20;1.70;;;;;;;7.57;95.86;97060.59;5019609;28;20045;-63
2022/09/17 04:38:17;;;;;;;8.05;1.77;;;;;;;7.52;95.96;97064.03;5008602;28;20044;-65
2022/09/17 04:40:45;;;;;;;6.28;1.50;;;;;;;7.54;96.66;97076.22;5020007;28;20527;-64
2022/09/17 04:43:12;;;;;;;3.28;1.50;;;;;;;7.51;96.06;97075.84;5040799;28;20112;-63
2022/09/17 04:45:38;;;;;;;4.80;1.75;;;;;;;7.48;96.39;97070.97;5034436;28;20571;-64
2022/09/17 04:48:05;;;;;;;7.63;2.00;;;;;;;7.44;96.31;97083.28;5007767;28;20493;-65
2022/09/17 04:50:31;;;;;;;6.03;1.70;;;;;;;7.38;97.09;97075.06;5018244;28;20053;-65
2022/09/17 04:52:58;;;;;;;6.55;2.00;;;;;;;7.31;97.15;97077.09;5036656;28;20120;-64
2022/09/17 04:55:25;;;;;;;7.93;2.28;;;;;;;7.32;97.43;97080.59;5035921;28;20046;-60
2022/09/17 04:57:52;;;;;;;5.85;1.80;;;;;;;7.38;97.05;97075.06;5012725;28;20412;-59
2022/09/17 05:00:20;;;;;;;6.80;2.20;;;;;;;7.41;96.67;97079.19;5026749;28;20462;-60
2022/09/17 05:02:50;;;;;;;9.25;3.47;;;;;;;7.44;96.77;97086.75;5026254;28;20573;-59
2022/09/17 05:05:18;;;;;;;6.55;1.98;;;;;;;7.45;96.94;97095.69;5019771;28;20140;-61
2022/09/17 05:07:45;;;;;;;5.72;1.80;;;;;;;7.65;96.45;97095.25;5024095;28;20520;-60
2022/09/17 05:10:15;;;;;;;4.95;1.90;;;;;;;7.79;95.27;97103.88;5016585;28;20091;-61
2022/09/17 05:12:47;;;;;;;6.55;2.38;;;;;;;7.92;94.38;97108.16;5024861;28;20052;-59
2022/09/17 05:15:14;;;;;;;5.22;1.70;;;;;;;7.93;94.71;97110.59;5033463;28;20148;-59
2022/09/17 05:17:40;;;;;;;4.40;2.00;;;;;;;7.92;94.47;97110.84;5028278;28;20430;-59
2022/09/17 05:20:07;;;;;;;4.70;1.75;;;;;;;7.90;94.18;97105.72;5038270;28;20052;-59
2022/09/17 05:22:33;;;;;;;6.78;1.92;;;;;;;8.06;93.16;97100.59;5019545;28;20041;-60
2022/09/17 05:25:00;;;;;;;3.92;1.67;;;;;;;8.02;93.73;97102.13;5024607;28;20452;-59
2022/09/17 05:27:26;;;;;;;5.30;1.83;;;;;;;8.03;93.96;97096.50;5024133;28;20141;-60
2022/09/17 05:29:53;;;;;;;5.57;2.05;;;;;;;7.74;95.20;97091.13;5019290;28;20107;-65
2022/09/17 05:32:19;;;;;;;6.57;2.38;;;;;;;7.60;95.67;97105.94;5028123;28;20052;-64
2022/09/17 05:34:45;;;;;;;5.13;1.95;;;;;;;7.62;95.95;97088.47;5019104;28;20045;-64
2022/09/17 05:37:12;;;;;;;5.22;2.35;;;;;;;7.59;96.05;97086.25;5017968;28;20056;-67
2022/09/17 05:39:39;;;;;;;8.48;2.38;;;;;;;7.59;96.62;97083.56;5020977;28;20227;-65
2022/09/17 05:42:05;;;;;;;4.20;2.47;;;;;;;7.67;96.81;97102.03;5022309;28;20154;-65
2022/09/17 05:44:32;;;;;;;5.00;2.08;;;;;;;7.71;96.23;97098.88;5021138;28;20226;-66
2022/09/17 05:46:58;;;;;;;6.40;2.72;;;;;;;7.70;95.47;97108.81;5022876;28;20480;-66
2022/09/17 05:49:25;;;;;;;6.63;2.33;;;;;;;7.77;95.72;97116.75;5022616;28;20520;-64
2022/09/17 05:51:51;;;;;;;5.45;2.30;;;;;;;7.88;95.79;97115.91;5017424;28;20144;-64
2022/09/17 05:54:18;;;;;;;11.10;2.67;;;;;;;8.00;95.57;97115.84;5026704;28;20039;-63
2022/09/17 05:56:44;;;;;;;14.43;3.45;;;;;;;8.00;94.98;97125.84;5020685;28;20183;-63
2022/09/17 05:59:12;;;;;;;6.53;2.15;;;;;;;8.03;94.46;97128.84;5024622;28;20050;-65
2022/09/17 06:01:38;;;;;;;5.75;2.47;;;;;;;7.88;94.64;97123.16;5023672;28;20548;-63
2022/09/17 06:04:05;;;;;;;4.40;2.10;;;;;;;7.85;93.88;97126.38;5023177;28;20493;-65
2022/09/17 06:06:31;;;;;;;5.43;2.10;;;;;;;7.81;93.62;97134.09;5016033;28;20041;-65
2022/09/17 06:08:58;;;;;;;6.03;2.03;;;;;;;7.87;93.05;97137.72;5025716;28;20131;-67
2022/09/17 06:11:25;;;;;;;4.80;2.65;;;;;;;7.85;93.63;97135.25;5023480;28;20046;-67
2022/09/17 06:13:52;;;;;;;10.35;2.35;;;;;;;7.87;94.11;97141.25;5025737;28;20125;-64
2022/09/17 06:16:20;;;;;;;2.40;1.70;;;;;;;7.77;93.81;97141.84;5017982;28;20042;-66
2022/09/17 06:18:49;;;;;;;6.43;2.05;;;;;;;7.83;93.38;97145.47;5006715;28;20445;-63
2022/09/17 06:21:18;;;;;;;4.72;1.88;;;;;;;7.86;93.36;97147.69;5021808;28;20103;-67
2022/09/17 06:23:44;;;;;;;6.85;2.28;;;;;;;7.88;93.54;97140.16;5024400;28;20124;-64
2022/09/17 06:26:11;;;;;;;5.30;1.98;;;;;;;7.99;92.36;97145.78;5023280;28;20469;-64
2022/09/17 06:28:38;;;;;;;5.95;2.00;;;;;;;7.97;92.01;97142.47;5023994;28;20065;-65
2022/09/17 06:31:09;;;;;;;5.30;2.10;;;;;;;8.01;92.67;97149.88;5021604;28;20060;-64
2022/09/17 06:33:35;;;;;;;7.13;1.90;;;;;;;8.06;94.31;97151.81;5019131;28;20504;-66
2022/09/17 06:36:06;;;;;;;7.45;2.97;;;;;;;7.85;95.81;97147.94;5021924;28;20047;-65
2022/09/17 06:38:38;;;;;;;5.78;2.42;;;;;;;7.68;99.27;97145.97;5017712;28;20077;-62
2022/09/17 06:41:05;;;;;;;8.00;2.67;;;;;;;7.68;99.60;97151.38;5009667;28;20047;-65
2022/09/17 06:43:31;;;;;;;7.40;3.22;;;;;;;7.79;100.00;97157.78;5021856;28;20054;-64
2022/09/17 06:46:07;;;;;;;12.45;3.03;;;;;;;7.63;100.00;97159.34;5012075;28;21657;-65
2022/09/17 06:48:35;;;;;;;6.38;2.60;;;;;;;7.64;100.00;97163.69;5023336;28;20083;-65
2022/09/17 06:51:05;;;;;;;5.57;2.45;;;;;;;7.63;100.00;97164.75;5022992;28;20045;-67
2022/09/17 06:53:31;;;;;;;8.15;2.83;;;;;;;7.51;100.00;97164.75;5017775;28;20144;-64
2022/09/17 06:55:59;;;;;;;9.35;4.10;;;;;;;7.54;100.00;97167.81;5009768;28;20057;-67
2022/09/17 06:58:32;;;;;;;4.80;2.28;;;;;;;7.47;100.00;97167.13;5020928;28;20087;-64
2022/09/17 07:01:00;;;;;;;7.20;3.78;;;;;;;7.52;100.00;97169.09;5024710;28;20124;-64
2022/09/17 07:03:28;;;;;;;7.25;2.13;;;;;;;7.50;100.00;97169.34;5013546;28;20057;-67
2022/09/17 07:05:55;;;;;;;8.00;2.67;;;;;;;7.57;100.00;97171.06;5006118;28;20218;-66
2022/09/17 07:08:22;;;;;;;6.72;2.80;;;;;;;7.70;100.00;97176.19;5016796;28;20120;-64
2022/09/17 07:10:49;;;;;;;5.68;2.70;;;;;;;7.70;100.00;97170.81;5025722;28;20112;-66
2022/09/17 07:13:15;;;;;;;6.05;2.88;;;;;;;7.71;100.00;97172.47;5024408;28;20527;-64
2022/09/17 07:15:42;;;;;;;4.93;2.90;;;;;;;7.62;100.00;97174.69;5025894;28;20400;-64
2022/09/17 07:18:10;;;;;;;4.65;2.60;;;;;;;7.40;100.00;97169.94;5016766;28;20042;-63
2022/09/17 07:20:37;;;;;;;5.47;2.38;;;;;;;7.40;100.00;97179.88;5005842;28;20130;-65
2022/09/17 07:23:04;;;;;;;4.95;2.55;;;;;;;7.48;100.00;97186.81;5009619;28;20076;-67
2022/09/17 07:25:30;;;;;;;7.63;2.55;;;;;;;7.41;100.00;97189.63;5026011;28;20041;-65
2022/09/17 07:27:57;;;;;;;6.57;2.42;;;;;;;7.41;100.00;97192.31;5027210;28;20045;-66
2022/09/17 07:30:23;;;;;;;3.75;2.10;;;;;;;7.40;100.00;97196.88;5027628;28;20128;-67
2022/09/17 07:32:50;;;;;;;6.43;3.55;;;;;;;7.52;100.00;97196.84;5026101;28;20530;-67
2022/09/17 07:35:16;;;;;;;7.78;2.70;;;;;;;7.54;100.00;97191.22;5027821;28;20052;-65
2022/09/17 07:37:43;;;;;;;6.60;2.83;;;;;;;7.57;100.00;97195.31;5014083;28;20042;-64
2022/09/17 07:40:09;;;;;;;12.07;3.30;;;;;;;7.58;100.00;97203.19;5025167;28;20523;-66
2022/09/17 07:42:36;;;;;;;5.43;2.78;;;;;;;7.61;100.00;97197.31;5030976;28;20045;-65
2022/09/17 07:45:02;;;;;;;9.65;2.92;;;;;;;7.66;100.00;97193.91;5027075;28;20415;-64
2022/09/17 07:47:29;;;;;;;6.55;2.90;;;;;;;7.73;100.00;97194.59;5018942;28;20489;-64
2022/09/17 07:49:55;;;;;;;8.70;2.75;;;;;;;7.75;100.00;97202.44;5026601;28;20140;-66
2022/09/17 07:52:22;;;;;;;6.43;3.40;;;;;;;7.96;100.00;97200.16;5024798;28;20458;-67
2022/09/17 07:54:48;;;;;;;6.65;3.30;;;;;;;7.97;100.00;97201.81;5026976;28;20049;-64
2022/09/17 07:57:15;;;;;;;9.75;3.60;;;;;;;7.92;100.00;97203.34;5025542;28;20056;-66
2022/09/17 07:59:41;;;;;;;7.53;4.05;;;;;;;8.15;100.00;97217.00;5011066;28;20077;-65
2022/09/17 08:02:11;;;;;;;6.15;3.00;;;;;;;8.20;100.00;97212.53;5017738;28;20037;-65
2022/09/17 08:04:41;;;;;;;9.38;3.50;;;;;;;8.26;100.00;97218.81;5028955;28;20052;-64
2022/09/17 08:07:11;;;;;;;6.75;3.28;;;;;;;8.17;100.00;97221.09;5019476;28;20057;-64
2022/09/17 08:09:38;;;;;;;8.23;3.63;;;;;;;8.17;100.00;97226.47;5024830;28;20105;-65
2022/09/17 08:12:05;;;;;;;8.32;3.35;;;;;;;8.24;100.00;97223.63;5034117;28;20055;-67
2022/09/17 08:14:31;;;;;;;9.48;3.72;;;;;;;8.34;100.00;97223.00;5047684;28;20120;-64
2022/09/17 08:16:57;;;;;;;8.82;2.90;;;;;;;8.46;100.00;97231.06;5009498;28;20046;-64
2022/09/17 08:19:24;;;;;;;11.15;3.33;;;;;;;8.54;100.00;97228.00;5031385;28;20132;-65
2022/09/17 08:21:51;;;;;;;6.82;2.90;;;;;;;8.34;99.70;97223.00;5045933;28;20534;-63
2022/09/17 08:24:17;;;;;;;7.65;3.05;;;;;;;8.56;100.00;97238.56;5025549;28;20050;-64
2022/09/17 08:26:43;;;;;;;8.45;3.70;;;;;;;8.81;99.11;97234.66;5024871;28;20052;-63
2022/09/17 08:29:10;;;;;;;6.53;3.13;;;;;;;8.92;98.19;97225.66;5036855;28;20057;-63
2022/09/17 08:31:36;;;;;;;8.38;2.45;;;;;;;8.96;98.14;97231.41;5045617;28;20516;-64
2022/09/17 08:34:09;;;;;;;8.20;2.88;;;;;;;9.14;98.99;97224.13;5033564;28;20059;-67
2022/09/17 08:36:36;;;;;;;10.70;2.60;;;;;;;8.94;96.77;97217.31;5026168;28;20156;-65
2022/09/17 08:39:02;;;;;;;10.48;2.90;;;;;;;9.22;97.82;97218.31;5025493;28;20598;-65
2022/09/17 08:41:48;;;;;;;9.00;2.72;;;;;;;9.29;96.90;97218.94;5024862;28;20114;-64
2022/09/17 08:44:38;;;;;;;8.82;2.45;;;;;;;9.43;94.84;97221.31;5026066;28;20044;-64
2022/09/17 08:47:15;;;;;;;7.32;2.10;;;;;;;9.52;93.73;97219.00;5027709;28;20439;-65
2022/09/17 08:49:51;;;;;;;6.95;2.70;;;;;;;9.48;94.42;97222.19;5011994;28;20046;-64
2022/09/17 08:52:45;;;;;;;12.52;3.45;;;;;;;9.41;94.13;97223.44;5014233;28;20424;-63
2022/09/17 08:55:23;;;;;;;9.85;2.80;;;;;;;9.32;94.99;97234.66;5027896;28;20428;-64
2022/09/17 08:58:01;;;;;;;9.48;3.55;;;;;;;9.31;95.59;97233.03;5027753;28;20124;-65
2022/09/17 09:00:38;;;;;;;5.65;2.17;;;;;;;9.27;93.52;97231.06;5007325;28;20053;-66
2022/09/17 09:03:20;;;;;;;5.57;2.50;;;;;;;9.16;93.06;97230.09;5008815;28;20313;-64
2022/09/17 09:05:51;;;;;;;8.80;2.17;;;;;;;9.23;94.46;97233.44;5027623;28;20124;-64
2022/09/17 09:08:39;;;;;;;6.45;2.47;;;;;;;9.29;92.74;97235.16;5029544;28;20041;-63
2022/09/17 09:11:12;;;;;;;5.95;2.35;;;;;;;9.46;93.66;97231.59;5023676;28;20536;-64
2022/09/17 09:13:45;;;;;;;9.63;2.50;;;;;;;9.54;94.06;97233.88;5023459;28;20041;-64
2022/09/17 09:16:24;;;;;;;7.45;2.47;;;;;;;9.98;93.31;97226.88;5026906;28;20075;-64
2022/09/17 09:18:59;;;;;;;10.18;2.53;;;;;;;10.14;92.59;97227.91;5025791;28;20099;-64
2022/09/17 09:21:28;;;;;;;4.22;2.40;;;;;;;10.32;91.17;97224.03;5024300;28;20060;-64
2022/09/17 09:24:08;;;;;;;7.10;2.10;;;;;;;10.31;88.73;97218.91;5016607;28;20334;-67
2022/09/17 09:26:47;;;;;;;8.18;2.58;;;;;;;10.07;88.18;97233.50;5013280;28;20132;-65
2022/09/17 09:29:22;;;;;;;8.35;2.67;;;;;;;10.38;88.90;97225.75;5013674;28;20051;-63
2022/09/17 09:32:07;;;;;;;6.72;2.70;;;;;;;10.38;88.33;97228.44;5034386;28;20044;-67
2022/09/17 09:34:42;;;;;;;7.25;2.38;;;;;;;10.56;88.22;97236.47;5026288;28;20102;-66
2022/09/17 09:37:24;;;;;;;6.93;2.60;;;;;;;10.35;85.72;97234.34;5028589;28;20128;-63
2022/09/17 09:39:53;;;;;;;6.10;1.90;;;;;;;10.48;88.12;97232.34;5024175;28;20037;-66
2022/09/17 09:42:33;;;;;;;10.43;2.08;;;;;;;10.48;87.09;97232.34;5027989;28;20055;-65
2022/09/17 09:45:11;;;;;;;7.00;2.03;;;;;;;10.30;83.61;97233.47;5035556;28;20127;-66
2022/09/17 09:47:46;;;;;;;5.00;1.88;;;;;;;10.15;85.69;97238.44;5023682;28;20045;-66
2022/09/17 09:50:21;;;;;;;7.35;2.55;;;;;;;10.04;86.63;97225.06;5035012;28;20051;-65
2022/09/17 09:53:26;;;;;;;5.05;2.20;;;;;;;10.22;87.19;97232.03;5025165;28;20045;-66
2022/09/17 09:56:07;;;;;;;5.75;2.45;;;;;;;10.49;86.15;97232.09;5023470;28;20044;-64
2022/09/17 09:58:38;;;;;;;6.25;2.30;;;;;;;10.54;84.41;97237.56;5019541;28;20037;-65
2022/09/17 10:01:16;;;;;;;7.28;2.17;;;;;;;10.82;83.21;97232.16;5023664;28;20049;-65
2022/09/17 10:03:44;;;;;;;4.85;1.88;;;;;;;10.93;81.32;97233.06;5023699;28;20408;-64
2022/09/17 10:06:13;;;;;;;4.03;1.83;;;;;;;10.82;79.64;97226.72;5037153;28;20543;-65
2022/09/17 10:09:00;;;;;;;5.60;1.98;;;;;;;10.59;81.93;97227.84;5012224;28;20052;-67
2022/09/17 10:11:32;;;;;;;11.30;2.45;;;;;;;10.84;79.01;97219.16;5033428;28;20041;-65
2022/09/17 10:14:15;;;;;;;3.95;1.77;;;;;;;11.12;78.83;97232.66;5018496;28;20156;-67
2022/09/17 10:16:41;;;;;;;6.68;2.40;;;;;;;11.05;79.03;97231.00;5024281;28;20124;-65
2022/09/17 10:19:08;;;;;;;5.25;1.70;;;;;;;11.09;77.71;97222.34;5014199;28;20049;-66
2022/09/17 10:21:41;;;;;;;6.03;2.10;;;;;;;10.92;79.91;97226.00;5032417;28;20074;-66
2022/09/17 10:24:16;;;;;;;4.90;1.60;;;;;;;10.90;77.86;97231.69;5035877;28;20049;-65
2022/09/17 10:26:43;;;;;;;4.22;1.73;;;;;;;11.09;77.76;97222.34;5030980;28;20056;-65
2022/09/17 10:29:17;;;;;;;3.70;1.60;;;;;;;11.25;78.72;97226.00;5026964;28;20248;-65
2022/09/17 10:31:51;;;;;;;8.05;2.03;;;;;;;11.73;77.63;97227.91;5014547;28;20069;-64
2022/09/17 10:34:29;;;;;;;4.72;1.48;;;;;;;12.06;75.49;97224.00;5019665;28;20504;-66
2022/09/17 10:36:56;;;;;;;4.78;1.48;;;;;;;11.95;72.44;97214.97;5021315;28;20049;-65
2022/09/17 10:39:25;;;;;;;8.02;1.40;;;;;;;12.22;72.56;97219.47;5022981;28;20048;-66
2022/09/17 10:42:04;;;;;;;8.35;1.58;;;;;;;12.43;69.77;97218.72;5023556;28;20047;-66
2022/09/17 10:44:35;;;;;;;9.50;2.22;;;;;;;12.16;70.23;97225.16;5027579;28;20188;-66
2022/09/17 10:47:12;;;;;;;3.40;1.33;;;;;;;11.64;72.49;97233.03;5020580;28;20429;-65
2022/09/17 10:49:42;;;;;;;5.07;1.45;;;;;;;11.40;73.32;97223.41;5017001;28;20128;-65
2022/09/17 10:52:12;;;;;;;5.05;1.40;;;;;;;11.65;75.92;97219.19;5021052;28;20063;-65
2022/09/17 10:54:54;;;;;;;2.58;1.17;;;;;;;11.84;73.53;97214.13;5023401;28;20041;-65
2022/09/17 10:57:47;;;;;;;6.07;1.30;;;;;;;11.79;71.55;97205.97;5024747;28;20051;-67
2022/09/17 11:00:19;;;;;;;5.93;1.48;;;;;;;11.87;71.81;97201.13;5022783;28;20128;-65
2022/09/17 11:03:01;;;;;;;3.45;1.40;;;;;;;11.73;72.00;97201.59;5026903;28;20132;-67
2022/09/17 11:05:40;;;;;;;3.63;1.40;;;;;;;11.61;71.57;97207.22;5024852;28;20519;-66
2022/09/17 11:08:09;;;;;;;3.78;1.02;;;;;;;11.81;70.36;97198.41;5027550;28;20531;-67
2022/09/17 11:10:59;;;;;;;4.50;1.52;;;;;;;11.86;70.01;97196.78;5029847;28;20049;-67
2022/09/17 11:14:00;;;;;;;5.20;1.50;;;;;;;12.14;70.21;97187.41;5046225;28;20053;-68
2022/09/17 11:16:44;;;;;;;3.15;1.05;;;;;;;11.73;69.00;97198.06;5022088;28;20504;-66
2022/09/17 11:19:28;;;;;;;3.17;1.25;;;;;;;11.94;71.00;97196.28;5013530;28;20088;-66
2022/09/17 11:22:15;;;;;;;8.35;1.73;;;;;;;12.19;71.10;97178.47;5029025;28;20120;-65
2022/09/17 11:24:59;;;;;;;4.93;1.23;;;;;;;-148.22;100.00;64452.44;5028457;28;20056;-63
2022/09/17 11:27:46;;;;;;;3.92;1.50;;;;;;;-148.22;100.00;64452.44;5018948;28;20080;-65
2022/09/17 11:30:18;;;;;;;5.00;1.67;;;;;;;-148.22;100.00;64452.44;5029249;28;20111;-64
2022/09/17 11:33:19;;;;;;;3.30;1.40;;;;;;;-148.22;100.00;64452.44;5020396;28;20351;-66
2022/09/17 11:35:49;;;;;;;3.50;1.40;;;;;;;-148.22;100.00;64452.44;5029600;28;20448;-65
2022/09/17 11:38:38;;;;;;;5.38;1.13;;;;;;;-148.22;100.00;64452.44;5021871;28;20046;-64
2022/09/17 11:41:19;;;;;;;5.43;1.40;;;;;;;-148.22;100.00;64452.44;5028586;28;20049;-69
2022/09/17 11:43:53;;;;;;;4.33;0.90;;;;;;;-148.22;100.00;64452.44;5019147;28;20159;-69
2022/09/17 11:46:43;;;;;;;4.20;1.10;;;;;;;-148.22;100.00;64452.44;5028258;28;20131;-69
2022/09/17 11:49:25;;;;;;;10.07;1.90;;;;;;;-148.22;100.00;64452.44;5043186;28;20131;-69
2022/09/17 11:51:58;;;;;;;4.07;0.90;;;;;;;-148.22;100.00;64452.44;5031022;28;20049;-66
2022/09/17 11:54:38;;;;;;;5.50;1.35;;;;;;;-148.22;100.00;64452.44;5026031;28;20041;-67
2022/09/17 11:57:13;;;;;;;15.82;1.85;;;;;;;-148.22;100.00;64452.44;5018036;28;20046;-67
2022/09/17 12:00:00;;;;;;;5.25;1.20;;;;;;;-148.22;100.00;64452.44;5028547;28;20049;-67
2022/09/17 12:02:50;;;;;;;2.25;0.85;;;;;;;-148.22;100.00;64452.44;5028887;28;20049;-66
2022/09/17 12:05:33;;;;;;;4.82;0.90;;;;;;;-148.22;100.00;64452.44;5033067;28;20049;-68
2022/09/17 12:08:18;;;;;;;6.57;0.80;;;;;;;-148.22;100.00;64452.44;5016899;28;20044;-67